Time;durP1;ratioP1;P1;durP2;ratioP2;P2;SDS_P1;SDS_P2;PMS_P1;PMS_P2;Temp;Humidity;BMP_temperature;BMP_pressure;BME280_temperature;BME280_humidity;BME280_pressure;Samples;Min_cycle;Max_cycle;Signal;HPM_P1;HPM_P2
2021/08/19 00:02:00;;;;;;;39.17;28.65;;;;;;;15.48;100.00;100799.56;4964954;28;20055;-84
2021/08/19 00:04:25;;;;;;;40.58;28.85;;;;;;;15.46;100.00;100807.00;4948810;28;20038;-81
2021/08/19 00:06:51;;;;;;;36.17;27.40;;;;;;;15.53;100.00;100807.06;4950027;28;20058;-83
2021/08/19 00:09:16;;;;;;;40.05;28.60;;;;;;;15.54;100.00;100804.16;4952561;28;20043;-82
2021/08/19 00:11:44;;;;;;;38.85;28.80;;;;;;;15.54;100.00;100801.47;4980945;28;20042;-82
2021/08/19 00:14:11;;;;;;;38.28;26.90;;;;;;;15.52;100.00;100800.00;4950665;28;20049;-82
2021/08/19 00:16:36;;;;;;;39.50;28.80;;;;;;;15.55;100.00;100805.00;4948505;28;20037;-82
2021/08/19 00:19:03;;;;;;;37.53;28.48;;;;;;;15.56;100.00;100799.41;4966528;28;20051;-84
2021/08/19 00:21:29;;;;;;;41.03;28.20;;;;;;;15.56;100.00;100791.28;4963457;28;20074;-82
2021/08/19 00:23:56;;;;;;;38.15;27.27;;;;;;;15.56;100.00;100791.28;4981948;28;20119;-82
2021/08/19 00:26:22;;;;;;;41.03;28.88;;;;;;;15.62;100.00;100794.22;4965750;28;20117;-84
2021/08/19 00:28:48;;;;;;;37.42;28.63;;;;;;;15.65;100.00;100793.81;4982522;28;20976;-83
2021/08/19 00:31:13;;;;;;;39.58;26.83;;;;;;;15.66;100.00;100796.34;4984917;28;20113;-83
2021/08/19 00:33:39;;;;;;;38.88;28.40;;;;;;;15.68;100.00;100797.03;4984998;28;20042;-83
2021/08/19 00:36:05;;;;;;;39.85;28.80;;;;;;;15.68;100.00;100805.13;4981565;28;20038;-83
2021/08/19 00:38:31;;;;;;;39.83;28.75;;;;;;;15.72;100.00;100801.00;4986289;28;20487;-82
2021/08/19 00:40:57;;;;;;;40.42;27.92;;;;;;;15.70;100.00;100807.63;5001699;28;20133;-83
2021/08/19 00:43:23;;;;;;;38.78;27.92;;;;;;;15.71;100.00;100801.22;4984573;28;20038;-82
2021/08/19 00:45:48;;;;;;;41.47;28.58;;;;;;;15.75;100.00;100795.19;4975608;28;20043;-82
2021/08/19 00:48:14;;;;;;;39.75;26.65;;;;;;;15.76;100.00;100796.03;4987618;28;20124;-84
2021/08/19 00:50:42;;;;;;;38.92;25.35;;;;;;;15.77;100.00;100792.28;4989348;28;20068;-83
2021/08/19 00:53:08;;;;;;;36.50;26.17;;;;;;;15.78;100.00;100799.38;4988629;28;20188;-82
2021/08/19 00:55:34;;;;;;;34.30;25.08;;;;;;;15.80;100.00;100794.59;4990157;28;20054;-83
2021/08/19 00:58:00;;;;;;;34.90;25.55;;;;;;;15.79;100.00;100798.31;4982516;28;20062;-83
2021/08/19 01:00:27;;;;;;;36.15;25.55;;;;;;;15.80;100.00;100794.59;4988862;28;20100;-82
2021/08/19 01:02:54;;;;;;;35.78;25.52;;;;;;;15.78;100.00;100797.50;4989027;28;20069;-82
2021/08/19 01:05:31;;;;;;;39.60;26.70;;;;;;;15.77;100.00;100795.00;4965810;28;20055;-83
2021/08/19 01:07:59;;;;;;;37.15;26.92;;;;;;;15.75;100.00;100788.94;4989106;28;20057;-82
2021/08/19 01:10:28;;;;;;;40.20;28.50;;;;;;;15.77;100.00;100798.53;4990798;28;20046;-82
2021/08/19 01:12:54;;;;;;;40.05;26.65;;;;;;;15.72;100.00;100790.16;4988896;28;20042;-82
2021/08/19 01:15:19;;;;;;;39.03;25.95;;;;;;;15.70;100.00;100796.81;4990610;28;20089;-83
2021/08/19 01:18:00;;;;;;;40.72;27.75;;;;;;;15.70;100.00;100794.09;4987560;28;20796;-84
2021/08/19 01:20:31;;;;;;;42.85;28.42;;;;;;;15.65;100.00;100794.69;4986906;28;20038;-82
2021/08/19 01:22:58;;;;;;;40.78;26.55;;;;;;;15.65;100.00;100796.53;4986151;28;20043;-83
2021/08/19 01:25:24;;;;;;;44.03;27.83;;;;;;;15.61;100.00;100793.41;4988763;28;20057;-82
2021/08/19 01:27:53;;;;;;;37.72;25.92;;;;;;;15.60;100.00;100796.31;5003065;28;20038;-82
2021/08/19 01:30:22;;;;;;;38.47;26.17;;;;;;;15.55;100.00;100800.44;4989280;28;20105;-83
2021/08/19 01:32:49;;;;;;;39.80;27.30;;;;;;;15.57;100.00;100806.47;4987237;28;20557;-83
2021/08/19 01:35:26;;;;;;;43.17;27.48;;;;;;;15.52;100.00;100794.56;4990011;28;20058;-82
2021/08/19 01:37:53;;;;;;;42.78;27.63;;;;;;;15.47;100.00;100794.31;4988889;28;20034;-82
2021/08/19 01:40:19;;;;;;;42.72;27.45;;;;;;;15.45;100.00;100793.69;4988867;28;20069;-83
2021/08/19 01:42:46;;;;;;;42.50;29.00;;;;;;;15.42;100.00;100794.94;4983291;28;20039;-82
2021/08/19 01:45:15;;;;;;;46.13;28.00;;;;;;;15.44;100.00;100803.66;5004100;28;20149;-82
2021/08/19 01:47:48;;;;;;;47.78;28.40;;;;;;;15.44;100.00;100797.44;4997098;28;20030;-82
2021/08/19 01:50:19;;;;;;;44.67;27.52;;;;;;;15.40;100.00;100793.44;4984719;28;20046;-82
2021/08/19 01:52:51;;;;;;;42.47;27.95;;;;;;;15.37;100.00;100796.56;4963575;28;20078;-83
2021/08/19 01:55:18;;;;;;;43.22;27.92;;;;;;;15.35;100.00;100799.44;4966107;28;20512;-82
2021/08/19 01:57:44;;;;;;;45.55;29.52;;;;;;;15.37;100.00;100791.16;4990383;28;20035;-82
2021/08/19 02:00:09;;;;;;;45.72;31.02;;;;;;;15.39;100.00;100792.59;4970392;28;20616;-83
2021/08/19 02:02:36;;;;;;;47.95;28.90;;;;;;;15.37;100.00;100786.56;4968968;28;20038;-81
2021/08/19 02:05:02;;;;;;;46.53;29.77;;;;;;;15.35;100.00;100781.34;4966311;28;20053;-82
2021/08/19 02:07:27;;;;;;;46.58;30.90;;;;;;;15.35;100.00;100784.03;4984979;28;20043;-82
2021/08/19 02:09:53;;;;;;;44.63;30.33;;;;;;;15.35;100.00;100786.75;4969484;28;20042;-83
2021/08/19 02:12:21;;;;;;;43.50;30.55;;;;;;;15.36;100.00;100784.88;4968732;28;20041;-82
2021/08/19 02:14:47;;;;;;;45.38;29.48;;;;;;;15.38;100.00;100790.09;4966181;28;20038;-82
2021/08/19 02:17:13;;;;;;;45.00;30.05;;;;;;;15.35;100.00;100792.16;4968789;28;20046;-82
2021/08/19 02:19:38;;;;;;;42.42;28.95;;;;;;;15.38;100.00;100785.53;4966653;28;20053;-82
2021/08/19 02:22:05;;;;;;;45.35;29.20;;;;;;;15.38;100.00;100785.53;4969856;28;20047;-82
2021/08/19 02:24:31;;;;;;;43.97;29.38;;;;;;;15.37;100.00;100786.56;4961060;28;20491;-82
2021/08/19 02:26:57;;;;;;;43.17;30.23;;;;;;;15.38;100.00;100777.41;4960456;28;20063;-82
2021/08/19 02:29:22;;;;;;;48.55;31.10;;;;;;;15.34;100.00;100776.97;4968778;28;20110;-82
2021/08/19 02:31:49;;;;;;;46.90;29.27;;;;;;;15.34;100.00;100776.16;4952269;28;20038;-83
2021/08/19 02:34:15;;;;;;;43.70;29.05;;;;;;;15.33;100.00;100769.03;4969196;28;20049;-83
2021/08/19 02:36:46;;;;;;;49.30;30.42;;;;;;;15.31;100.00;100771.13;4967113;28;20420;-82
2021/08/19 02:39:12;;;;;;;44.20;29.95;;;;;;;15.31;100.00;100768.44;4996673;28;20518;-83
2021/08/19 02:41:38;;;;;;;46.65;30.75;;;;;;;15.31;100.00;100765.72;4989895;28;20050;-83
2021/08/19 02:44:04;;;;;;;48.85;31.52;;;;;;;15.25;100.00;100759.22;4987574;28;20046;-82
2021/08/19 02:46:29;;;;;;;47.20;29.63;;;;;;;15.21;100.00;100763.34;4987743;28;20049;-84
2021/08/19 02:48:59;;;;;;;46.75;30.67;;;;;;;15.23;100.00;100757.75;4988615;28;20057;-83
2021/08/19 02:51:25;;;;;;;47.85;30.80;;;;;;;15.20;100.00;100766.25;4987201;28;20526;-81
2021/08/19 02:53:51;;;;;;;44.50;30.13;;;;;;;15.15;100.00;100766.81;4987156;28;20241;-83
2021/08/19 02:56:18;;;;;;;48.42;30.58;;;;;;;15.14;100.00;100764.34;4980395;28;20158;-82
2021/08/19 02:58:44;;;;;;;48.08;30.42;;;;;;;15.16;100.00;100756.84;4986822;28;20129;-82
2021/08/19 03:01:09;;;;;;;47.58;31.80;;;;;;;15.17;100.00;100766.66;4988425;28;20206;-82
2021/08/19 03:03:38;;;;;;;46.75;32.55;;;;;;;15.18;100.00;100765.59;4973618;28;20046;-82
2021/08/19 03:06:04;;;;;;;48.58;32.38;;;;;;;15.14;100.00;100762.47;4988409;28;20049;-82
2021/08/19 03:08:29;;;;;;;48.60;32.22;;;;;;;15.15;100.00;100766.00;4986939;28;20039;-82
2021/08/19 03:10:57;;;;;;;49.80;32.38;;;;;;;15.09;100.00;100754.94;4986479;28;20054;-82
2021/08/19 03:13:22;;;;;;;48.47;32.40;;;;;;;15.07;100.00;100759.69;4982931;28;20134;-82
2021/08/19 03:15:47;;;;;;;53.58;32.55;;;;;;;15.04;100.00;100754.66;4987199;28;20180;-82
2021/08/19 03:18:14;;;;;;;55.35;32.95;;;;;;;15.03;100.00;100750.31;4988101;28;20313;-83
2021/08/19 03:20:39;;;;;;;51.17;33.38;;;;;;;15.05;100.00;100750.94;4985610;28;20039;-83
2021/08/19 03:23:08;;;;;;;51.90;32.60;;;;;;;15.03;100.00;100750.31;4987624;28;20045;-83
2021/08/19 03:25:33;;;;;;;52.60;33.72;;;;;;;15.06;100.00;100752.63;4969245;28;20053;-82
2021/08/19 03:28:03;;;;;;;50.35;32.45;;;;;;;15.06;100.00;100755.31;4986379;28;20047;-83
2021/08/19 03:30:36;;;;;;;58.22;34.58;;;;;;;15.07;100.00;100746.16;4987244;28;20049;-83
2021/08/19 03:33:06;;;;;;;52.50;33.10;;;;;;;15.06;100.00;100752.63;5016283;28;20095;-82
2021/08/19 03:35:32;;;;;;;51.70;33.83;;;;;;;15.09;100.00;100759.50;4985088;28;20496;-81
2021/08/19 03:37:58;;;;;;;52.10;33.55;;;;;;;15.10;100.00;100756.63;4981818;28;20054;-81
2021/08/19 03:40:24;;;;;;;55.65;34.95;;;;;;;15.13;100.00;100755.38;4979484;28;20038;-82
2021/08/19 03:42:50;;;;;;;50.50;32.95;;;;;;;15.16;100.00;100754.16;4987182;28;20053;-82
2021/08/19 03:45:19;;;;;;;56.20;35.10;;;;;;;15.18;100.00;100760.19;4985811;28;20097;-82
2021/08/19 03:47:46;;;;;;;56.13;34.80;;;;;;;15.21;100.00;100757.09;4979493;28;20038;-83
2021/08/19 03:50:12;;;;;;;58.28;33.92;;;;;;;15.22;100.00;100750.66;4996207;28;20310;-81
2021/08/19 03:52:37;;;;;;;61.92;33.55;;;;;;;15.26;100.00;100754.66;4984753;28;20061;-84
2021/08/19 03:55:04;;;;;;;54.17;35.25;;;;;;;15.30;100.00;100758.63;4980909;28;20058;-83
2021/08/19 03:57:29;;;;;;;58.15;34.65;;;;;;;15.31;100.00;100753.03;4974958;28;20922;-82
2021/08/19 03:59:56;;;;;;;58.28;34.42;;;;;;;15.32;100.00;100753.88;4984014;28;20145;-82
2021/08/19 04:02:21;;;;;;;55.17;34.70;;;;;;;15.34;100.00;100752.66;4997598;28;20515;-81
2021/08/19 04:04:47;;;;;;;60.97;37.42;;;;;;;15.38;100.00;100752.25;4986321;28;20061;-84
2021/08/19 04:07:12;;;;;;;60.75;37.28;;;;;;;15.36;100.00;100752.44;4982684;28;20299;-82
2021/08/19 04:09:37;;;;;;;61.60;37.33;;;;;;;15.40;100.00;100758.31;4997465;28;20050;-84
2021/08/19 04:12:04;;;;;;;60.63;35.92;;;;;;;15.42;100.00;100757.06;4967150;28;20050;-81
2021/08/19 04:14:31;;;;;;;67.55;37.50;;;;;;;15.47;100.00;100754.59;4985248;28;20038;-83
2021/08/19 04:16:57;;;;;;;69.40;41.10;;;;;;;15.55;100.00;100761.72;4984214;28;20122;-83
2021/08/19 04:19:22;;;;;;;70.03;40.00;;;;;;;15.59;100.00;100749.47;5002193;28;20493;-82
2021/08/19 04:21:47;;;;;;;68.72;40.60;;;;;;;15.64;100.00;100751.59;4983480;28;20395;-84
2021/08/19 04:24:13;;;;;;;71.40;40.38;;;;;;;15.63;100.00;100753.47;4997620;28;20049;-83
2021/08/19 04:26:38;;;;;;;77.22;41.50;;;;;;;15.68;100.00;100759.16;4981999;28;20081;-84
2021/08/19 04:29:03;;;;;;;77.70;42.00;;;;;;;15.72;100.00;100754.19;4967638;28;20092;-83
2021/08/19 04:31:29;;;;;;;72.00;42.13;;;;;;;15.75;100.00;100751.06;4949588;28;20110;-83
2021/08/19 04:33:54;;;;;;;74.78;43.80;;;;;;;15.76;100.00;100758.16;4960340;28;20043;-82
2021/08/19 04:36:20;;;;;;;77.65;42.17;;;;;;;15.77;100.00;100755.25;4962669;28;20446;-84
2021/08/19 04:38:45;;;;;;;78.40;42.33;;;;;;;15.82;100.00;100751.09;4962932;28;20057;-82
2021/08/19 04:41:10;;;;;;;74.53;42.70;;;;;;;15.82;100.00;100754.63;4963076;28;20662;-81
2021/08/19 04:43:37;;;;;;;77.20;43.05;;;;;;;15.85;100.00;100746.13;4963873;28;20038;-82
2021/08/19 04:46:02;;;;;;;73.30;43.35;;;;;;;15.88;100.00;100755.72;4963273;28;20058;-83
2021/08/19 04:48:27;;;;;;;76.65;41.95;;;;;;;15.91;100.00;100749.91;4943604;28;20397;-85
2021/08/19 04:50:53;;;;;;;74.55;41.22;;;;;;;15.90;100.00;100751.78;4979356;28;20129;-81
2021/08/19 04:53:19;;;;;;;75.22;42.33;;;;;;;15.93;100.00;100759.47;4963158;28;20121;-85
2021/08/19 04:55:45;;;;;;;78.43;40.25;;;;;;;15.95;100.00;100751.19;4978525;28;20043;-82
2021/08/19 04:58:10;;;;;;;73.75;41.55;;;;;;;15.98;100.00;100746.19;4964416;28;20043;-83
2021/08/19 05:00:36;;;;;;;70.55;40.40;;;;;;;16.00;100.00;100752.25;4955580;28;20042;-83
2021/08/19 05:03:01;;;;;;;73.07;41.55;;;;;;;16.02;100.00;100746.63;4963140;28;20332;-82
2021/08/19 05:05:26;;;;;;;75.05;38.35;;;;;;;16.04;100.00;100754.56;4962982;28;20043;-83
2021/08/19 05:07:52;;;;;;;74.20;41.03;;;;;;;16.01;100.00;100756.63;4962905;28;20093;-84
2021/08/19 05:10:17;;;;;;;72.10;40.75;;;;;;;16.07;100.00;100751.44;4963167;28;20504;-84
2021/08/19 05:12:43;;;;;;;71.72;39.13;;;;;;;16.07;100.00;100751.44;4961457;28;20083;-82
2021/08/19 05:15:10;;;;;;;73.78;38.97;;;;;;;16.12;100.00;100751.69;4963973;28;20256;-84
2021/08/19 05:17:35;;;;;;;67.40;36.85;;;;;;;16.09;100.00;100760.22;4963314;28;20034;-80
2021/08/19 05:20:00;;;;;;;70.03;39.42;;;;;;;16.11;100.00;100752.69;4963106;28;20476;-82
2021/08/19 05:22:26;;;;;;;68.60;37.53;;;;;;;16.14;100.00;100760.41;4964151;28;20599;-82
2021/08/19 05:24:51;;;;;;;66.22;37.58;;;;;;;16.13;100.00;100758.75;4962181;28;20050;-85
2021/08/19 05:27:17;;;;;;;70.55;36.88;;;;;;;16.15;100.00;100764.81;4964622;28;20043;-84
2021/08/19 05:29:42;;;;;;;67.07;36.85;;;;;;;16.14;100.00;100761.28;4961177;28;20182;-85
2021/08/19 05:32:07;;;;;;;63.35;33.47;;;;;;;16.17;100.00;100755.44;4963977;28;20074;-82
2021/08/19 05:34:33;;;;;;;63.53;35.22;;;;;;;16.12;100.00;100766.03;4969376;28;20101;-85
2021/08/19 05:36:58;;;;;;;63.65;36.00;;;;;;;16.15;100.00;100762.94;4984560;28;20129;-86
2021/08/19 05:39:23;;;;;;;60.10;34.22;;;;;;;16.16;100.00;100763.75;4968850;28;20133;-84
2021/08/19 05:41:49;;;;;;;63.03;34.65;;;;;;;16.21;100.00;100761.28;4968804;28;20546;-87
2021/08/19 05:44:14;;;;;;;57.67;33.90;;;;;;;16.19;100.00;100768.78;4969731;28;20050;-82
2021/08/19 05:46:40;;;;;;;57.25;34.10;;;;;;;16.20;100.00;100767.75;4986791;28;20053;-85
2021/08/19 05:49:10;;;;;;;58.70;33.78;;;;;;;16.22;100.00;100773.78;4999811;28;20102;-84
2021/08/19 05:51:35;;;;;;;52.67;31.80;;;;;;;16.21;100.00;100764.00;4976293;28;20711;-83
2021/08/19 05:54:01;;;;;;;52.40;30.35;;;;;;;16.21;100.00;100769.41;4986114;28;20335;-82
2021/08/19 05:56:26;;;;;;;46.75;29.10;;;;;;;16.18;100.00;100772.53;4952922;28;20053;-84
2021/08/19 05:58:51;;;;;;;48.13;28.83;;;;;;;16.21;100.00;100770.25;4969107;28;20480;-86
2021/08/19 06:01:17;;;;;;;48.95;30.80;;;;;;;16.23;100.00;100775.47;4982098;28;20046;-83
2021/08/19 06:03:42;;;;;;;43.25;26.95;;;;;;;16.20;100.00;100776.72;4981412;28;20062;-84
2021/08/19 06:06:10;;;;;;;45.40;27.27;;;;;;;16.20;100.00;100784.84;4985166;28;20321;-84
2021/08/19 06:08:36;;;;;;;40.47;26.37;;;;;;;16.21;100.00;100785.66;4975864;28;20046;-83
2021/08/19 06:11:01;;;;;;;38.58;25.15;;;;;;;16.19;100.00;100785.00;4966603;28;20069;-84
2021/08/19 06:13:27;;;;;;;37.90;24.90;;;;;;;16.18;100.00;100788.78;4966669;28;20093;-83
2021/08/19 06:15:52;;;;;;;38.08;24.23;;;;;;;16.16;100.00;100782.72;4965350;28;20097;-81
2021/08/19 06:18:17;;;;;;;39.00;24.17;;;;;;;16.16;100.00;100797.06;4966884;28;20165;-83
2021/08/19 06:20:43;;;;;;;37.83;24.27;;;;;;;16.19;100.00;100793.13;4967095;28;20049;-83
2021/08/19 06:23:11;;;;;;;40.10;25.52;;;;;;;16.22;100.00;100795.44;4965160;28;20046;-83
2021/08/19 06:25:41;;;;;;;38.55;24.88;;;;;;;16.19;100.00;100796.69;4964219;28;20069;-85
2021/08/19 06:28:08;;;;;;;40.72;24.52;;;;;;;16.18;100.00;100792.31;4985382;28;20766;-82
2021/08/19 06:30:33;;;;;;;35.85;23.55;;;;;;;16.18;100.00;100796.91;4986659;28;20526;-84
2021/08/19 06:33:00;;;;;;;40.50;23.02;;;;;;;16.19;100.00;100795.84;4984480;28;20195;-83
2021/08/19 06:35:26;;;;;;;37.40;23.73;;;;;;;16.21;100.00;100799.19;4983075;28;20043;-83
2021/08/19 06:37:52;;;;;;;33.40;21.45;;;;;;;16.19;100.00;100793.97;4984437;28;20507;-81
2021/08/19 06:40:17;;;;;;;31.38;21.67;;;;;;;16.19;100.00;100795.84;4984586;28;20043;-83
2021/08/19 06:42:43;;;;;;;35.50;22.67;;;;;;;16.16;100.00;100802.50;4992877;28;20054;-85
2021/08/19 06:45:09;;;;;;;33.00;20.83;;;;;;;16.19;100.00;100795.84;4983777;28;20411;-83
2021/08/19 06:47:35;;;;;;;31.38;20.17;;;;;;;16.17;100.00;100804.19;4985264;28;20058;-84
2021/08/19 06:50:00;;;;;;;33.17;21.02;;;;;;;16.20;100.00;100800.25;4981529;28;21895;-84
2021/08/19 06:52:26;;;;;;;31.80;20.52;;;;;;;16.21;100.00;100800.03;5000312;28;20046;-85
2021/08/19 06:54:51;;;;;;;31.15;20.92;;;;;;;16.21;100.00;100797.31;4984237;28;20046;-81
2021/08/19 06:57:17;;;;;;;29.65;20.52;;;;;;;16.25;100.00;100797.75;4968443;28;20038;-86
2021/08/19 06:59:42;;;;;;;33.15;21.67;;;;;;;16.28;100.00;100799.22;4982510;28;20182;-83
2021/08/19 07:02:07;;;;;;;33.50;19.60;;;;;;;16.28;100.00;100805.47;4969053;28;20042;-83
2021/08/19 07:04:33;;;;;;;31.73;19.27;;;;;;;16.24;100.00;100807.75;4984152;28;20073;-83
2021/08/19 07:06:58;;;;;;;29.13;18.90;;;;;;;16.24;100.00;100809.63;4982721;28;20515;-85
2021/08/19 07:09:24;;;;;;;31.58;20.33;;;;;;;16.26;100.00;100807.56;4984467;28;20066;-81
2021/08/19 07:11:50;;;;;;;34.88;20.90;;;;;;;16.27;100.00;100813.81;4967279;28;20411;-86
2021/08/19 07:14:15;;;;;;;38.05;22.65;;;;;;;16.25;100.00;100805.88;4985757;28;20054;-82
2021/08/19 07:16:41;;;;;;;36.67;23.30;;;;;;;16.24;100.00;100798.78;4983343;28;20034;-83
2021/08/19 07:19:06;;;;;;;40.25;23.48;;;;;;;16.25;100.00;100800.44;4978762;28;20518;-84
2021/08/19 07:21:32;;;;;;;36.10;23.83;;;;;;;16.25;100.00;100805.88;4984301;28;20054;-83
2021/08/19 07:23:57;;;;;;;37.13;24.88;;;;;;;16.29;100.00;100793.63;4984748;28;20089;-83
2021/08/19 07:26:24;;;;;;;39.63;25.08;;;;;;;16.31;100.00;100794.22;4976947;28;20092;-83
2021/08/19 07:28:53;;;;;;;39.17;24.23;;;;;;;16.30;100.00;100797.97;4980862;28;20415;-84
2021/08/19 07:31:18;;;;;;;;;;;;;;;16.31;100.00;100804.22;4983981;28;20056;-83
2021/08/19 07:33:43;;;;;;;42.35;27.92;;;;;;;16.23;100.00;100806.09;4981590;28;19925;-83
2021/08/19 07:36:10;;;;;;;41.97;27.60;;;;;;;16.24;100.00;100809.63;4981619;28;20069;-84
2021/08/19 07:38:36;;;;;;;46.33;29.02;;;;;;;16.29;100.00;100807.16;4984177;28;20483;-83
2021/08/19 07:41:01;;;;;;;49.78;29.52;;;;;;;16.34;100.00;100807.38;4976360;28;20050;-82
2021/08/19 07:43:26;;;;;;;49.08;30.80;;;;;;;16.38;100.00;100811.34;4977443;28;20097;-83
2021/08/19 07:45:52;;;;;;;48.65;29.13;;;;;;;16.42;100.00;100807.19;4984550;28;20046;-85
2021/08/19 07:48:17;;;;;;;47.10;28.33;;;;;;;16.42;100.00;100809.91;4981748;28;20053;-83
2021/08/19 07:50:43;;;;;;;45.38;29.80;;;;;;;16.43;100.00;100808.06;4978575;28;20038;-85
2021/08/19 07:53:09;;;;;;;52.97;31.92;;;;;;;16.46;100.00;100808.47;4983661;28;20137;-82
2021/08/19 07:55:34;;;;;;;48.03;30.58;;;;;;;16.51;100.00;100815.16;4981603;28;20049;-84
2021/08/19 07:58:00;;;;;;;50.17;31.80;;;;;;;16.54;100.00;100814.75;4983802;28;20050;-83
2021/08/19 08:00:31;;;;;;;55.55;33.42;;;;;;;16.57;100.00;100817.03;4984811;28;20419;-80
2021/08/19 08:02:57;;;;;;;48.95;33.05;;;;;;;16.56;100.00;100818.91;4983472;28;20050;-84
2021/08/19 08:05:24;;;;;;;49.92;33.60;;;;;;;16.59;100.00;100823.09;4981159;28;20058;-82
2021/08/19 08:07:51;;;;;;;56.70;32.75;;;;;;;16.60;100.00;100824.75;4997689;28;20030;-84
2021/08/19 08:10:17;;;;;;;53.70;32.72;;;;;;;16.63;100.00;100819.78;4999415;28;20438;-83
2021/08/19 08:12:42;;;;;;;52.75;34.05;;;;;;;16.69;100.00;100828.97;4997893;28;20116;-82
2021/08/19 08:15:09;;;;;;;51.70;33.40;;;;;;;16.76;100.00;100829.00;4999089;28;20105;-81
2021/08/19 08:17:36;;;;;;;57.50;34.60;;;;;;;16.78;100.00;100819.66;4998713;28;20517;-83
2021/08/19 08:20:04;;;;;;;54.60;33.78;;;;;;;16.85;100.00;100827.78;4982975;28;20046;-83
2021/08/19 08:22:29;;;;;;;54.42;32.38;;;;;;;16.90;100.00;100831.56;4984070;28;20038;-86
2021/08/19 08:24:54;;;;;;;50.40;33.13;;;;;;;16.97;100.00;100830.72;4967882;28;20458;-85
2021/08/19 08:27:20;;;;;;;54.20;34.78;;;;;;;16.96;100.00;100829.06;4983976;28;20097;-82
2021/08/19 08:29:46;;;;;;;52.05;30.65;;;;;;;17.00;100.00;100827.63;4980095;28;20038;-83
2021/08/19 08:32:11;;;;;;;55.75;34.38;;;;;;;17.03;100.00;100832.63;4982925;28;20060;-83
2021/08/19 08:34:38;;;;;;;53.33;32.58;;;;;;;17.04;100.00;100837.84;4982168;28;20152;-83
2021/08/19 08:37:04;;;;;;;46.28;32.05;;;;;;;17.04;100.00;100842.44;4983145;28;20276;-84
2021/08/19 08:39:32;;;;;;;49.15;32.03;;;;;;;17.01;100.00;100827.41;4984184;28;20450;-82
2021/08/19 08:41:57;;;;;;;50.10;32.33;;;;;;;17.02;100.00;100834.50;4982455;28;20053;-84
2021/08/19 08:44:28;;;;;;;47.95;32.00;;;;;;;17.05;100.00;100835.97;4980531;28;20046;-81
2021/08/19 08:46:54;;;;;;;48.00;32.60;;;;;;;17.05;100.00;100835.97;5009738;28;20439;-81
2021/08/19 08:49:21;;;;;;;50.40;31.25;;;;;;;17.08;100.00;100835.56;4982333;28;20038;-84
2021/08/19 08:51:51;;;;;;;50.50;30.80;;;;;;;17.13;100.00;100835.78;4982825;28;20631;-84
2021/08/19 08:54:17;;;;;;;48.67;29.98;;;;;;;17.08;100.00;100838.28;4982984;28;20052;-84
2021/08/19 08:56:43;;;;;;;44.97;29.30;;;;;;;17.06;100.00;100840.34;4983926;28;20125;-84
2021/08/19 08:59:09;;;;;;;47.97;31.20;;;;;;;17.04;100.00;100840.56;4983140;28;20042;-83
2021/08/19 09:01:34;;;;;;;46.40;28.95;;;;;;;17.08;100.00;100849.09;4975468;28;20129;-82
2021/08/19 09:03:59;;;;;;;47.40;28.02;;;;;;;17.04;100.00;100842.44;4982133;28;20108;-83
2021/08/19 09:06:39;;;;;;;44.75;30.42;;;;;;;17.06;100.00;100851.19;4984338;28;20157;-83
2021/08/19 09:09:20;;;;;;;48.60;29.92;;;;;;;17.10;100.00;100845.16;4986343;28;20045;-85
2021/08/19 09:12:00;;;;;;;42.38;27.90;;;;;;;17.15;100.00;100855.41;4981607;28;20605;-85
2021/08/19 09:14:35;;;;;;;42.60;28.45;;;;;;;17.17;100.00;100852.47;4985664;28;20085;-81
2021/08/19 09:17:01;;;;;;;43.80;27.02;;;;;;;17.22;100.00;100856.22;4986770;28;20166;-85
2021/08/19 09:19:32;;;;;;;40.78;25.95;;;;;;;17.17;100.00;100852.47;5002141;28;20065;-84
2021/08/19 09:22:00;;;;;;;41.53;27.13;;;;;;;17.18;100.00;100849.56;4985738;28;20030;-81
2021/08/19 09:24:28;;;;;;;44.75;28.27;;;;;;;17.17;100.00;100853.28;4975391;28;20049;-86
2021/08/19 09:26:55;;;;;;;43.00;27.98;;;;;;;17.17;100.00;100858.72;4986196;28;20042;-85
2021/08/19 09:29:30;;;;;;;42.80;29.50;;;;;;;17.25;100.00;100854.97;4985878;28;20388;-83
2021/08/19 09:32:07;;;;;;;43.10;30.15;;;;;;;17.27;100.00;100859.16;4985647;28;20558;-80
2021/08/19 09:34:34;;;;;;;47.65;29.90;;;;;;;17.37;100.00;100856.03;4987962;28;20046;-86
2021/08/19 09:37:01;;;;;;;42.10;26.52;;;;;;;17.43;100.00;100857.09;4982434;28;20042;-81
2021/08/19 09:39:38;;;;;;;46.33;28.98;;;;;;;17.41;100.00;100856.47;4998276;28;20125;-86
2021/08/19 09:42:04;;;;;;;41.90;26.73;;;;;;;17.44;100.00;100848.75;4965543;28;20050;-81
2021/08/19 09:44:33;;;;;;;42.55;27.83;;;;;;;17.44;100.00;100861.47;5002652;28;20038;-85
2021/08/19 09:46:59;;;;;;;44.42;27.73;;;;;;;17.46;100.00;100864.81;4986787;28;20031;-84
2021/08/19 09:49:30;;;;;;;44.00;29.23;;;;;;;17.46;100.00;100859.38;4984402;28;20101;-82
2021/08/19 09:52:11;;;;;;;42.72;26.80;;;;;;;17.39;100.00;100863.97;4999608;28;20038;-82
2021/08/19 09:54:41;;;;;;;44.33;28.67;;;;;;;17.36;100.00;100852.50;4989901;28;20039;-81
2021/08/19 09:57:09;;;;;;;47.15;27.50;;;;;;;17.30;100.00;100855.22;4984568;28;20103;-81
2021/08/19 09:59:37;;;;;;;44.85;28.38;;;;;;;17.26;100.00;100851.22;4948837;28;20519;-83
2021/08/19 10:02:08;;;;;;;47.03;29.85;;;;;;;17.27;100.00;100864.59;4961979;28;20134;-85
2021/08/19 10:04:34;;;;;;;46.40;28.75;;;;;;;17.22;100.00;100858.94;4994311;28;20105;-82
2021/08/19 10:07:02;;;;;;;41.83;28.33;;;;;;;17.24;100.00;100858.75;4983844;28;20426;-85
2021/08/19 10:09:27;;;;;;;41.60;28.48;;;;;;;17.25;100.00;100861.25;4986099;28;20291;-85
2021/08/19 10:11:55;;;;;;;47.38;30.95;;;;;;;17.29;100.00;100861.66;4984807;28;20050;-83
2021/08/19 10:14:25;;;;;;;45.10;29.98;;;;;;;17.27;100.00;100859.16;4978585;28;20042;-85
2021/08/19 10:16:52;;;;;;;44.72;29.52;;;;;;;17.27;100.00;100853.75;4978425;28;20038;-82
2021/08/19 10:19:31;;;;;;;42.90;27.02;;;;;;;17.29;100.00;100867.06;4980309;28;20267;-85
2021/08/19 10:22:16;;;;;;;46.97;29.80;;;;;;;17.36;100.00;100857.91;4985947;28;20182;-85
2021/08/19 10:24:46;;;;;;;39.17;27.73;;;;;;;17.37;100.00;100847.91;4999629;28;20056;-83
2021/08/19 10:27:19;;;;;;;44.53;29.20;;;;;;;17.36;100.00;100857.09;4989940;28;20602;-82
2021/08/19 10:29:53;;;;;;;43.20;28.73;;;;;;;17.42;100.00;100855.41;4985478;28;20076;-84
2021/08/19 10:32:25;;;;;;;43.22;26.70;;;;;;;17.42;100.00;100867.09;4985771;28;20088;-84
2021/08/19 10:35:10;;;;;;;40.20;27.30;;;;;;;17.44;100.00;100864.19;4984089;28;20147;-85
2021/08/19 10:37:59;;;;;;;39.22;28.23;;;;;;;17.41;100.00;100856.47;4985556;28;20050;-84
2021/08/19 10:40:25;;;;;;;42.08;26.27;;;;;;;17.43;100.00;100857.91;4961895;28;20650;-82
2021/08/19 10:42:56;;;;;;;41.08;28.60;;;;;;;17.44;100.00;100848.75;4984217;28;20053;-83
2021/08/19 10:45:27;;;;;;;40.63;27.45;;;;;;;17.43;100.00;100848.94;4968928;28;20049;-85
2021/08/19 10:48:00;;;;;;;42.00;28.15;;;;;;;17.42;100.00;100858.97;4975136;28;20086;-83
2021/08/19 10:50:42;;;;;;;43.95;29.35;;;;;;;17.43;100.00;100859.78;4992741;28;20046;-84
2021/08/19 10:53:27;;;;;;;46.67;28.63;;;;;;;17.38;100.00;100852.31;4983158;28;20470;-84
2021/08/19 10:55:55;;;;;;;47.40;30.10;;;;;;;17.34;100.00;100845.59;4996040;28;20545;-85
2021/08/19 10:58:31;;;;;;;50.22;29.33;;;;;;;17.26;100.00;100859.34;4983119;28;20649;-83
2021/08/19 11:01:20;;;;;;;51.40;30.45;;;;;;;17.27;100.00;100859.16;4984712;28;20042;-81
2021/08/19 11:03:46;;;;;;;;;;;;;;;17.25;100.00;100852.28;4987307;28;20423;-82